createdAt,value
2018-08-11T00:00:46.990Z,15.00
2018-08-11T00:03:16.293Z,11.43
2018-08-11T00:05:45.603Z,12.73
2018-08-11T00:08:14.981Z,13.73
2018-08-11T00:10:44.453Z,14.00
2018-08-11T00:13:13.759Z,12.53
2018-08-11T00:15:43.205Z,12.27
2018-08-11T00:18:12.473Z,11.13
2018-08-11T00:20:41.786Z,12.13
2018-08-11T00:23:11.208Z,13.90
2018-08-11T00:25:40.601Z,12.87
2018-08-11T00:28:10.101Z,13.37
2018-08-11T00:30:39.525Z,15.60
2018-08-11T00:33:08.849Z,14.73
2018-08-11T00:35:38.237Z,14.47
2018-08-11T00:38:07.677Z,13.37
2018-08-11T00:40:37.077Z,13.17
2018-08-11T00:43:06.490Z,14.83
2018-08-11T00:45:35.817Z,11.77
2018-08-11T00:48:05.399Z,11.83
2018-08-11T00:50:35.999Z,13.23
2018-08-11T00:53:06.381Z,14.47
2018-08-11T00:55:35.689Z,17.60
2018-08-11T00:58:05.081Z,12.87
2018-08-11T01:00:34.414Z,12.33
2018-08-11T01:03:03.817Z,12.90
2018-08-11T01:05:33.132Z,12.73
2018-08-11T01:08:02.462Z,14.77
2018-08-11T01:10:32.048Z,14.00
2018-08-11T01:13:01.361Z,14.43
2018-08-11T01:15:30.709Z,15.90
2018-08-11T01:18:00.006Z,14.53
2018-08-11T01:20:29.369Z,16.03
2018-08-11T01:22:58.677Z,13.10
2018-08-11T01:25:28.033Z,12.73
2018-08-11T01:27:57.290Z,12.50
2018-08-11T01:30:26.629Z,13.30
2018-08-11T01:32:56.003Z,15.13
2018-08-11T01:35:25.209Z,14.60
2018-08-11T01:37:54.534Z,13.53
2018-08-11T01:40:23.798Z,15.40
2018-08-11T01:42:53.166Z,12.47
2018-08-11T01:45:22.495Z,15.47
2018-08-11T01:47:51.864Z,12.27
2018-08-11T01:50:21.217Z,14.07
2018-08-11T01:52:50.569Z,13.83
2018-08-11T01:55:19.949Z,13.60
2018-08-11T01:57:49.238Z,14.27
2018-08-11T02:00:21.185Z,14.20
2018-08-11T02:02:50.490Z,13.20
2018-08-11T02:05:19.805Z,13.90
2018-08-11T02:07:49.129Z,13.17
2018-08-11T02:10:20.319Z,14.47
2018-08-11T02:12:49.798Z,13.10
2018-08-11T02:15:19.113Z,13.03
2018-08-11T02:17:48.378Z,13.60
2018-08-11T02:20:18.993Z,13.40
2018-08-11T02:22:49.323Z,14.17
2018-08-11T02:25:18.735Z,14.20
2018-08-11T02:27:48.021Z,15.93
2018-08-11T02:30:18.481Z,14.20
2018-08-11T02:32:47.947Z,14.73
2018-08-11T02:35:17.352Z,13.67
2018-08-11T02:37:46.603Z,14.50
2018-08-11T02:40:16.974Z,13.03
2018-08-11T02:42:46.305Z,17.03
2018-08-11T02:45:17.011Z,15.03
2018-08-11T02:47:47.188Z,15.17
2018-08-11T02:50:16.493Z,17.87
2018-08-11T02:52:45.875Z,16.40
2018-08-11T02:55:15.174Z,14.87
2018-08-11T02:57:44.446Z,14.53
2018-08-11T03:00:13.957Z,15.03
2018-08-11T03:02:43.213Z,12.97
2018-08-11T03:05:12.533Z,13.90
2018-08-11T03:07:41.786Z,14.80
2018-08-11T03:10:12.371Z,13.27
2018-08-11T03:12:42.084Z,12.60
2018-08-11T03:15:12.669Z,13.10
2018-08-11T03:17:42.270Z,13.60
2018-08-11T03:20:13.342Z,15.33
2018-08-11T03:22:42.826Z,13.53
2018-08-11T03:25:12.229Z,14.10
2018-08-11T03:27:41.566Z,14.97
2018-08-11T03:30:11.457Z,15.73
2018-08-11T03:32:40.694Z,14.73
2018-08-11T03:35:09.960Z,22.20
2018-08-11T03:37:39.164Z,18.17
2018-08-11T03:40:09.969Z,17.00
2018-08-11T03:42:39.329Z,18.80
2018-08-11T03:45:08.665Z,18.57
2018-08-11T03:47:37.949Z,17.27
2018-08-11T03:50:07.626Z,16.70
2018-08-11T03:52:37.128Z,18.27
2018-08-11T03:55:06.412Z,17.27
2018-08-11T03:57:35.734Z,16.83
2018-08-11T04:00:07.142Z,16.03
2018-08-11T04:02:36.424Z,18.10
2018-08-11T04:05:05.813Z,16.23
2018-08-11T04:07:35.073Z,16.20
2018-08-11T04:10:05.040Z,18.10
2018-08-11T04:12:34.309Z,20.33
2018-08-11T04:15:03.633Z,21.53
2018-08-11T04:17:38.733Z,17.17
2018-08-11T04:20:09.785Z,15.03
2018-08-11T04:22:39.021Z,17.43
2018-08-11T04:25:08.977Z,14.83
2018-08-11T04:27:38.699Z,16.30
2018-08-11T04:30:09.508Z,16.90
2018-08-11T04:32:38.780Z,14.63
2018-08-11T04:35:08.280Z,15.33
2018-08-11T04:37:37.485Z,15.47
2018-08-11T04:40:06.873Z,18.33
2018-08-11T04:42:36.172Z,14.67
2018-08-11T04:45:06.212Z,16.30
2018-08-11T04:47:35.488Z,13.20
2018-08-11T04:50:05.373Z,19.03
2018-08-11T04:52:34.868Z,16.37
2018-08-11T04:55:04.360Z,14.43
2018-08-11T04:57:33.640Z,15.17
2018-08-11T05:00:02.844Z,16.40
2018-08-11T05:02:32.119Z,14.87
2018-08-11T05:05:01.409Z,15.27
2018-08-11T05:07:30.621Z,16.03
2018-08-11T05:10:00.433Z,15.67
2018-08-11T05:12:29.765Z,17.23
2018-08-11T05:14:59.114Z,15.87
2018-08-11T05:17:28.396Z,15.43
2018-08-11T05:19:58.373Z,15.67
2018-08-11T05:22:27.619Z,15.50
2018-08-11T05:24:56.901Z,15.83
2018-08-11T05:27:26.294Z,15.00
2018-08-11T05:29:55.577Z,15.53
2018-08-11T05:32:24.808Z,14.73
2018-08-11T05:34:54.714Z,13.53
2018-08-11T05:37:24.014Z,12.53
2018-08-11T05:39:53.280Z,15.63
2018-08-11T05:42:22.552Z,14.70
2018-08-11T05:44:51.852Z,13.33
2018-08-11T05:47:21.188Z,13.03
2018-08-11T05:49:50.513Z,12.37
2018-08-11T05:52:19.784Z,12.73
2018-08-11T05:54:49.073Z,11.60
2018-08-11T05:57:18.361Z,13.07
2018-08-11T05:59:47.693Z,11.53
2018-08-11T06:02:16.957Z,11.97
2018-08-11T06:04:46.196Z,14.40
2018-08-11T06:07:15.476Z,12.07
2018-08-11T06:09:44.709Z,13.50
2018-08-11T06:12:14.001Z,11.23
2018-08-11T06:14:43.215Z,11.13
2018-08-11T06:17:12.471Z,11.40
2018-08-11T06:19:41.703Z,11.47
2018-08-11T06:22:10.998Z,9.47
2018-08-11T06:24:40.212Z,12.33
2018-08-11T06:27:09.505Z,9.97
2018-08-11T06:29:38.802Z,9.97
2018-08-11T06:32:08.227Z,9.90
2018-08-11T06:34:37.445Z,8.97
2018-08-11T06:37:07.001Z,8.97
2018-08-11T06:39:36.218Z,10.17
2018-08-11T06:42:05.485Z,7.93
2018-08-11T06:44:34.749Z,11.97
2018-08-11T06:47:04.039Z,9.43
2018-08-11T06:49:33.369Z,8.67
2018-08-11T06:52:02.633Z,9.33
2018-08-11T06:54:31.916Z,8.40
2018-08-11T06:57:01.157Z,9.83
2018-08-11T06:59:30.449Z,7.93
2018-08-11T07:02:00.049Z,7.63
2018-08-11T07:04:29.321Z,9.10
2018-08-11T07:06:58.636Z,8.13
2018-08-11T07:09:29.056Z,7.33
2018-08-11T07:11:58.325Z,8.83
2018-08-11T07:14:27.608Z,8.00
2018-08-11T07:16:56.877Z,6.27
2018-08-11T07:19:26.157Z,10.20
2018-08-11T07:21:55.426Z,6.73
2018-08-11T07:24:24.636Z,7.60
2018-08-11T07:26:53.909Z,8.10
2018-08-11T07:29:23.131Z,7.00
2018-08-11T07:31:52.405Z,7.83
2018-08-11T07:34:21.669Z,7.03
2018-08-11T07:36:50.949Z,9.70
2018-08-11T07:39:20.262Z,8.30
2018-08-11T07:41:49.601Z,7.87
2018-08-11T07:44:18.861Z,10.83
2018-08-11T07:46:48.149Z,12.40
2018-08-11T07:49:17.498Z,10.13
2018-08-11T07:51:46.861Z,9.27
2018-08-11T07:54:16.110Z,8.07
2018-08-11T07:56:45.465Z,7.70
2018-08-11T07:59:14.705Z,8.40
2018-08-11T08:01:44.009Z,6.70
2018-08-11T08:04:13.301Z,6.80
2018-08-11T08:06:42.573Z,6.47
2018-08-11T08:09:13.569Z,7.23
2018-08-11T08:11:43.261Z,6.83
2018-08-11T08:14:13.200Z,6.63
2018-08-11T08:16:42.421Z,7.20
2018-08-11T08:19:11.654Z,6.07
2018-08-11T08:21:40.941Z,6.80
2018-08-11T08:24:10.236Z,6.97
2018-08-11T08:26:39.578Z,6.20
2018-08-11T08:29:08.929Z,5.53
2018-08-11T08:31:38.172Z,6.10
2018-08-11T08:34:07.586Z,6.67
2018-08-11T08:36:36.856Z,6.03
2018-08-11T08:39:09.288Z,4.23
2018-08-11T08:41:38.550Z,4.77
2018-08-11T08:44:07.958Z,3.30
2018-08-11T08:46:37.181Z,6.67
2018-08-11T08:49:06.585Z,2.73
2018-08-11T08:51:35.851Z,4.00
2018-08-11T08:54:05.189Z,5.23
2018-08-11T08:56:34.422Z,3.63
2018-08-11T08:59:04.063Z,2.83
2018-08-11T09:01:33.668Z,5.03
2018-08-11T09:04:02.969Z,4.10
2018-08-11T09:06:32.269Z,4.23
2018-08-11T09:09:01.551Z,3.20
2018-08-11T09:11:30.866Z,4.80
2018-08-11T09:14:00.163Z,4.27
2018-08-11T09:16:29.463Z,3.30
2018-08-11T09:18:58.705Z,3.20
2018-08-11T09:21:28.051Z,3.00
2018-08-11T09:23:57.297Z,4.10
2018-08-11T09:26:26.585Z,3.17
2018-08-11T09:28:55.869Z,3.23
2018-08-11T09:31:25.157Z,4.00
2018-08-11T09:33:54.434Z,3.13
2018-08-11T09:36:23.741Z,3.40
2018-08-11T09:38:53.054Z,3.17
2018-08-11T09:41:22.301Z,3.03
2018-08-11T09:43:51.701Z,3.43
2018-08-11T09:46:20.969Z,5.17
2018-08-11T09:48:50.302Z,4.17
2018-08-11T09:51:19.616Z,3.53
2018-08-11T09:53:48.902Z,3.83
2018-08-11T09:56:18.165Z,3.83
2018-08-11T09:58:47.595Z,3.07
2018-08-11T10:01:21.782Z,4.40
2018-08-11T10:03:51.129Z,3.57
2018-08-11T10:06:20.369Z,3.33
2018-08-11T10:08:49.657Z,3.03
2018-08-11T10:11:18.922Z,3.00
2018-08-11T10:13:48.208Z,4.23
2018-08-11T10:16:17.422Z,3.70
2018-08-11T10:18:57.062Z,4.63
2018-08-11T10:21:26.350Z,4.27
2018-08-11T10:23:55.644Z,3.93
2018-08-11T10:26:25.122Z,4.47
2018-08-11T10:28:54.427Z,5.50
2018-08-11T10:31:23.777Z,4.20
2018-08-11T10:33:53.017Z,4.97
2018-08-11T10:36:22.333Z,8.73
2018-08-11T10:38:51.565Z,4.30
2018-08-11T10:41:20.919Z,4.73
2018-08-11T10:43:50.684Z,5.53
2018-08-11T10:46:19.963Z,4.40
2018-08-11T10:48:49.261Z,5.30
2018-08-11T10:51:18.642Z,4.30
2018-08-11T10:53:47.920Z,4.78
2018-08-11T10:56:17.322Z,3.52
2018-08-11T10:58:46.570Z,6.53
2018-08-11T11:01:15.869Z,4.37
2018-08-11T11:03:45.405Z,4.25
2018-08-11T11:06:14.709Z,3.42
2018-08-11T11:08:44.229Z,3.83
2018-08-11T11:11:13.663Z,3.90
2018-08-11T11:13:42.949Z,4.22
2018-08-11T11:16:12.264Z,3.77
2018-08-11T11:18:41.564Z,4.17
2018-08-11T11:21:10.872Z,3.50
2018-08-11T11:23:40.158Z,3.67
2018-08-11T11:26:09.506Z,3.30
2018-08-11T11:28:38.777Z,3.00
2018-08-11T11:31:08.054Z,3.70
2018-08-11T11:33:37.309Z,3.92
2018-08-11T11:36:06.633Z,2.83
2018-08-11T11:38:35.849Z,3.20
2018-08-11T11:41:05.193Z,3.25
2018-08-11T11:43:34.449Z,3.30
2018-08-11T11:46:03.793Z,3.83
2018-08-11T11:48:33.059Z,2.85
2018-08-11T11:51:02.349Z,2.70
2018-08-11T11:53:31.654Z,3.62
2018-08-11T11:56:00.950Z,3.85
2018-08-11T11:58:30.244Z,3.20
2018-08-11T12:00:59.569Z,3.30
2018-08-11T12:03:28.798Z,3.27
2018-08-11T12:05:58.175Z,3.50
2018-08-11T12:08:27.421Z,3.22
2018-08-11T12:10:56.698Z,3.33
2018-08-11T12:13:25.988Z,3.67
2018-08-11T12:15:55.213Z,3.65
2018-08-11T12:18:24.473Z,3.40
2018-08-11T12:20:53.709Z,4.03
2018-08-11T12:23:23.008Z,3.58
2018-08-11T12:25:52.285Z,3.72
2018-08-11T12:28:21.607Z,3.20
2018-08-11T12:30:50.897Z,3.12
2018-08-11T12:33:20.133Z,3.10
2018-08-11T12:35:49.494Z,3.27
2018-08-11T12:38:18.736Z,5.35
2018-08-11T12:40:48.065Z,4.70
2018-08-11T12:43:17.353Z,4.12
2018-08-11T12:45:46.667Z,3.45
2018-08-11T12:48:15.885Z,4.10
2018-08-11T12:50:45.200Z,3.55
2018-08-11T12:53:14.437Z,3.40
2018-08-11T12:55:43.725Z,3.45
2018-08-11T12:58:12.990Z,3.70
2018-08-11T13:00:42.279Z,3.40
2018-08-11T13:03:11.532Z,3.70
2018-08-11T13:05:40.816Z,3.47
2018-08-11T13:08:10.141Z,2.98
2018-08-11T13:10:39.465Z,3.37
2018-08-11T13:13:08.737Z,3.10
2018-08-11T13:15:38.076Z,2.90
2018-08-11T13:18:07.412Z,4.00
2018-08-11T13:20:36.704Z,3.65
2018-08-11T13:23:05.989Z,3.00
2018-08-11T13:25:35.225Z,4.25
2018-08-11T13:28:04.515Z,3.05
2018-08-11T13:30:33.745Z,3.45
2018-08-11T13:33:03.017Z,3.65
2018-08-11T13:35:32.241Z,2.50
2018-08-11T13:38:01.551Z,3.55
2018-08-11T13:40:30.762Z,3.58
2018-08-11T13:43:00.066Z,2.77
2018-08-11T13:45:29.403Z,3.77
2018-08-11T13:47:58.720Z,2.67
2018-08-11T13:50:28.082Z,2.40
2018-08-11T13:52:57.428Z,2.20
2018-08-11T13:55:26.679Z,1.98
2018-08-11T13:57:55.890Z,2.27
2018-08-11T14:00:25.204Z,2.08
2018-08-11T14:02:54.434Z,1.95
2018-08-11T14:05:23.734Z,2.20
2018-08-11T14:07:52.961Z,3.47
2018-08-11T14:10:22.254Z,1.95
2018-08-11T14:12:51.517Z,2.60
2018-08-11T14:15:20.794Z,2.20
2018-08-11T14:17:50.025Z,2.35
2018-08-11T14:20:19.379Z,2.67
2018-08-11T14:22:48.604Z,1.90
2018-08-11T14:25:17.885Z,2.75
2018-08-11T14:27:47.172Z,2.08
2018-08-11T14:30:16.473Z,2.55
2018-08-11T14:32:45.778Z,2.42
2018-08-11T14:35:15.030Z,3.25
2018-08-11T14:37:44.337Z,2.50
2018-08-11T14:40:13.704Z,2.98
2018-08-11T14:42:48.229Z,2.37
2018-08-11T14:45:17.566Z,2.80
2018-08-11T14:47:46.814Z,2.72
2018-08-11T14:50:16.186Z,3.75
2018-08-11T14:52:45.421Z,2.37
2018-08-11T14:55:14.712Z,1.95
2018-08-11T14:57:44.013Z,5.70
2018-08-11T15:00:14.289Z,5.70
2018-08-11T15:02:43.553Z,2.50
2018-08-11T15:05:12.926Z,2.10
2018-08-11T15:07:42.284Z,2.60
2018-08-11T15:10:11.732Z,2.85
2018-08-11T15:12:41.002Z,4.10
2018-08-11T15:15:11.313Z,3.65
2018-08-11T15:17:41.624Z,1.90
2018-08-11T15:20:11.187Z,2.22
2018-08-11T15:22:40.849Z,2.30
2018-08-11T15:25:10.609Z,2.62
2018-08-11T15:27:40.358Z,2.55
2018-08-11T15:30:11.877Z,2.15
2018-08-11T15:32:41.334Z,4.17
2018-08-11T15:35:10.733Z,2.65
2018-08-11T15:37:40.039Z,3.17
2018-08-11T15:40:09.289Z,2.50
2018-08-11T15:42:38.594Z,2.90
2018-08-11T15:45:08.540Z,5.78
2018-08-11T15:47:38.067Z,2.77
2018-08-11T15:50:07.449Z,2.30
2018-08-11T15:52:37.063Z,3.72
2018-08-11T15:55:06.675Z,5.90
2018-08-11T15:57:35.937Z,5.62
2018-08-11T16:00:06.044Z,4.53
2018-08-11T16:02:35.306Z,4.60
2018-08-11T16:05:04.621Z,3.80
2018-08-11T16:07:33.897Z,4.58
2018-08-11T16:10:03.221Z,4.72
2018-08-11T16:12:32.578Z,3.02
2018-08-11T16:15:01.861Z,5.37
2018-08-11T16:17:31.153Z,5.05
2018-08-11T16:20:00.387Z,2.40
2018-08-11T16:22:29.702Z,2.15
2018-08-11T16:24:59.008Z,2.72
2018-08-11T16:27:28.241Z,2.33
2018-08-11T16:29:57.521Z,4.30
2018-08-11T16:32:26.813Z,11.65
2018-08-11T16:34:56.129Z,8.78
2018-08-11T16:37:25.388Z,7.37
2018-08-11T16:39:54.640Z,3.83
2018-08-11T16:42:23.905Z,3.67
2018-08-11T16:44:53.173Z,3.30
2018-08-11T16:47:22.593Z,2.65
2018-08-11T16:49:51.949Z,3.35
2018-08-11T16:52:21.276Z,4.67
2018-08-11T16:54:50.555Z,3.90
2018-08-11T16:57:19.862Z,3.70
2018-08-11T16:59:49.169Z,5.00
2018-08-11T17:02:18.524Z,7.45
2018-08-11T17:04:47.789Z,6.12
2018-08-11T17:07:17.097Z,7.00
2018-08-11T17:09:46.405Z,4.37
2018-08-11T17:12:15.688Z,10.35
2018-08-11T17:14:45.055Z,8.13
2018-08-11T17:17:14.459Z,2.50
2018-08-11T17:19:43.748Z,2.75
2018-08-11T17:22:13.047Z,2.42
2018-08-11T17:24:42.354Z,2.98
2018-08-11T17:27:11.783Z,3.95
2018-08-11T17:29:41.110Z,3.60
2018-08-11T17:32:10.521Z,4.22
2018-08-11T17:34:39.886Z,5.62
2018-08-11T17:37:09.148Z,3.02
2018-08-11T17:39:38.513Z,4.25
2018-08-11T17:42:08.453Z,3.27
2018-08-11T17:44:37.834Z,4.72
2018-08-11T17:47:07.081Z,3.65
2018-08-11T17:49:36.358Z,5.47
2018-08-11T17:52:05.629Z,5.40
2018-08-11T17:54:35.191Z,6.15
2018-08-11T17:57:04.490Z,7.00
2018-08-11T17:59:33.733Z,7.15
2018-08-11T18:02:03.137Z,4.10
2018-08-11T18:04:32.481Z,6.55
2018-08-11T18:07:01.925Z,4.05
2018-08-11T18:09:31.217Z,3.80
2018-08-11T18:12:00.545Z,4.35
2018-08-11T18:14:29.793Z,3.80
2018-08-11T18:16:59.145Z,3.98
2018-08-11T18:19:28.470Z,4.22
2018-08-11T18:21:57.837Z,6.22
2018-08-11T18:24:27.098Z,4.20
2018-08-11T18:26:56.434Z,3.75
2018-08-11T18:29:26.318Z,6.67
2018-08-11T18:31:55.636Z,3.77
2018-08-11T18:34:24.981Z,4.47
2018-08-11T18:36:54.320Z,8.17
2018-08-11T18:39:23.736Z,6.40
2018-08-11T18:41:53.055Z,7.50
2018-08-11T18:44:22.401Z,5.07
2018-08-11T18:46:51.732Z,6.07
2018-08-11T18:49:21.401Z,5.67
2018-08-11T18:51:56.439Z,4.47
2018-08-11T18:58:33.651Z,5.60
2018-08-11T19:01:03.266Z,5.47
2018-08-11T19:03:32.654Z,4.80
2018-08-11T19:06:02.163Z,5.20
2018-08-11T19:08:31.798Z,4.13
2018-08-11T19:11:01.260Z,4.80
2018-08-11T19:13:30.582Z,3.40
2018-08-11T19:15:59.950Z,3.87
2018-08-11T19:18:29.418Z,4.17
2018-08-11T19:20:58.745Z,5.43
2018-08-11T19:23:28.141Z,6.33
2018-08-11T19:25:57.882Z,4.87
2018-08-11T19:28:27.277Z,8.13
2018-08-11T19:30:56.944Z,5.90
2018-08-11T19:33:26.379Z,4.57
2018-08-11T19:35:56.576Z,4.97
2018-08-11T19:38:30.147Z,4.60
2018-08-11T19:41:02.547Z,5.80
2018-08-11T19:43:36.709Z,3.57
2018-08-11T19:46:11.105Z,4.57
2018-08-11T19:48:41.092Z,4.77
2018-08-11T19:51:12.938Z,4.67
2018-08-11T19:53:43.294Z,3.60
2018-08-11T20:00:53.515Z,5.27
2018-08-11T20:03:27.231Z,8.40
2018-08-11T20:05:56.863Z,6.70
2018-08-11T20:08:26.980Z,4.33
2018-08-11T20:10:59.069Z,6.30
2018-08-11T20:13:31.212Z,6.73
2018-08-11T20:16:03.482Z,3.77
2018-08-11T20:18:33.686Z,5.67
2018-08-11T20:21:03.392Z,5.73
2018-08-11T20:23:33.633Z,6.37
2018-08-11T20:26:04.488Z,8.00
2018-08-11T20:28:34.247Z,4.00
2018-08-11T20:31:03.888Z,3.83
2018-08-11T20:33:33.596Z,3.93
2018-08-11T20:36:03.020Z,4.27
2018-08-11T20:38:32.491Z,3.00
2018-08-11T20:41:01.928Z,7.67
2018-08-11T20:43:31.385Z,3.90
2018-08-11T20:46:00.836Z,5.20
2018-08-11T20:50:38.841Z,4.67
2018-08-11T20:53:08.415Z,5.30
2018-08-11T20:55:38.008Z,3.83
2018-08-11T20:58:07.400Z,4.60
2018-08-11T21:00:36.907Z,5.77
2018-08-11T21:03:09.156Z,3.93
2018-08-11T21:05:38.610Z,3.80
2018-08-11T21:08:08.459Z,3.53
2018-08-11T21:10:37.995Z,4.80
2018-08-11T21:13:07.695Z,6.57
2018-08-11T21:15:37.104Z,3.77
2018-08-11T21:18:06.585Z,4.30
2018-08-11T21:20:36.040Z,5.30
2018-08-11T21:23:05.507Z,3.67
2018-08-11T21:25:34.958Z,5.70
2018-08-11T21:28:04.439Z,3.83
2018-08-11T21:30:33.824Z,3.33
2018-08-11T21:33:03.267Z,5.53
2018-08-11T21:35:32.703Z,4.73
2018-08-11T21:38:02.108Z,4.60
2018-08-11T21:40:31.536Z,4.07
2018-08-11T21:43:00.984Z,4.10
2018-08-11T21:45:30.424Z,9.87
2018-08-11T21:47:59.876Z,4.93
2018-08-11T21:50:29.349Z,3.83
2018-08-11T21:52:58.735Z,4.23
2018-08-11T21:55:28.149Z,4.97
2018-08-11T21:57:57.563Z,3.67
2018-08-11T22:00:37.037Z,6.77
2018-08-11T22:03:07.817Z,5.80
2018-08-11T22:05:37.195Z,3.70
2018-08-11T22:08:06.659Z,5.20
2018-08-11T22:10:36.416Z,5.37
2018-08-11T22:13:05.770Z,6.33
2018-08-11T22:15:35.139Z,4.03
2018-08-11T22:18:04.614Z,4.97
2018-08-11T22:20:33.972Z,4.60
2018-08-11T22:23:03.615Z,5.53
2018-08-11T22:25:32.987Z,3.07
2018-08-11T22:28:02.643Z,4.30
2018-08-11T22:30:32.112Z,3.57
2018-08-11T22:33:01.574Z,3.07
2018-08-11T22:35:30.900Z,2.70
2018-08-11T22:38:00.221Z,4.90
2018-08-11T22:40:29.542Z,4.03
2018-08-11T22:42:59.822Z,2.83
2018-08-11T22:45:29.133Z,2.73
2018-08-11T22:47:58.562Z,3.20
2018-08-11T22:50:27.895Z,3.87
2018-08-11T22:52:57.334Z,3.90
2018-08-11T22:55:26.598Z,3.80
2018-08-11T22:57:55.897Z,4.43
2018-08-11T23:00:25.224Z,3.37
2018-08-11T23:07:32.794Z,4.57
2018-08-11T23:10:02.124Z,6.33
2018-08-11T23:12:31.377Z,3.73
2018-08-11T23:15:01.015Z,4.30
2018-08-11T23:17:30.363Z,5.67
2018-08-11T23:19:59.699Z,3.30
2018-08-11T23:22:29.051Z,4.00
2018-08-11T23:24:58.396Z,4.10
2018-08-11T23:27:27.781Z,5.23
2018-08-11T23:29:57.258Z,4.60
2018-08-11T23:32:26.590Z,6.83
2018-08-11T23:34:56.070Z,5.60
2018-08-11T23:37:25.539Z,5.27
2018-08-11T23:39:54.983Z,6.07
2018-08-11T23:42:24.410Z,3.50
2018-08-11T23:44:53.913Z,8.97
2018-08-11T23:47:23.370Z,5.80
2018-08-11T23:49:52.818Z,4.90
2018-08-11T23:52:22.341Z,4.03
2018-08-11T23:54:51.794Z,7.07
2018-08-11T23:57:21.134Z,4.60
2018-08-11T23:59:50.503Z,6.43
